Time;durP1;ratioP1;P1;durP2;ratioP2;P2;SDS_P1;SDS_P2;PMS_P1;PMS_P2;Temp;Humidity;BMP_temperature;BMP_pressure;BME280_temperature;BME280_humidity;BME280_pressure;Samples;Min_cycle;Max_cycle;Signal;HPM_P1;HPM_P2
2024/03/14 00:01:31;;;;;;;10.67;7.13;;;10.70;99.90;;;;;;6148211;23;20438;-59
2024/03/14 00:03:58;;;;;;;11.93;6.60;;;10.70;99.90;;;;;;6147715;23;20522;-59
2024/03/14 00:06:24;;;;;;;9.70;6.97;;;10.70;99.90;;;;;;6148066;23;20482;-61
2024/03/14 00:08:52;;;;;;;11.10;6.90;;;10.70;99.90;;;;;;6147914;23;20833;-58
2024/03/14 00:11:20;;;;;;;12.57;5.97;;;10.70;99.90;;;;;;6147907;23;20410;-61
2024/03/14 00:13:47;;;;;;;10.30;6.70;;;10.60;99.90;;;;;;6146832;23;20805;-61
2024/03/14 00:16:15;;;;;;;8.67;6.03;;;10.60;99.90;;;;;;6147612;23;20406;-60
2024/03/14 00:18:42;;;;;;;7.40;6.10;;;10.60;99.90;;;;;;6147646;23;20407;-62
2024/03/14 00:21:10;;;;;;;10.93;6.40;;;10.60;99.90;;;;;;6147709;23;20490;-62
2024/03/14 00:23:37;;;;;;;11.27;7.60;;;10.70;99.90;;;;;;6146992;23;20443;-64
2024/03/14 00:26:08;;;;;;;11.57;6.70;;;10.70;99.90;;;;;;6147754;23;20404;-62
2024/03/14 00:28:35;;;;;;;16.07;8.53;;;10.60;99.90;;;;;;6147307;23;20750;-60
2024/03/14 00:31:03;;;;;;;8.60;5.63;;;10.70;99.90;;;;;;6147920;23;20486;-59
2024/03/14 00:33:31;;;;;;;11.80;6.17;;;10.60;99.90;;;;;;6147154;23;20431;-61
2024/03/14 00:35:58;;;;;;;11.93;6.30;;;10.60;99.90;;;;;;6149293;23;20405;-60
2024/03/14 00:38:25;;;;;;;8.40;6.10;;;10.60;99.90;;;;;;6150082;23;20445;-61
2024/03/14 00:40:52;;;;;;;8.17;6.03;;;10.70;99.90;;;;;;6149474;23;20486;-59
2024/03/14 00:43:19;;;;;;;11.97;7.10;;;10.60;99.90;;;;;;6149598;23;20800;-59
2024/03/14 00:45:46;;;;;;;9.93;6.03;;;10.70;99.90;;;;;;6149746;23;20410;-58
2024/03/14 00:48:13;;;;;;;8.97;5.93;;;10.70;99.90;;;;;;6149988;23;20430;-57
2024/03/14 00:50:41;;;;;;;8.17;5.90;;;10.70;99.90;;;;;;6149727;23;20465;-61
2024/03/14 00:53:08;;;;;;;8.70;6.73;;;10.60;99.90;;;;;;6149030;23;20427;-61
2024/03/14 00:55:35;;;;;;;9.53;6.10;;;10.60;99.90;;;;;;6149906;23;20459;-60
2024/03/14 00:58:02;;;;;;;10.43;6.10;;;10.60;99.90;;;;;;6149825;23;20485;-61
2024/03/14 01:00:29;;;;;;;8.07;6.60;;;10.50;99.90;;;;;;6149436;23;20403;-64
2024/03/14 01:02:57;;;;;;;9.97;5.80;;;10.40;99.90;;;;;;6148982;23;20430;-60
2024/03/14 01:05:24;;;;;;;14.87;6.80;;;10.30;99.90;;;;;;6149065;23;20407;-62
2024/03/14 01:07:51;;;;;;;11.63;6.63;;;10.20;99.90;;;;;;6149156;23;20403;-61
2024/03/14 01:10:21;;;;;;;13.70;7.23;;;10.10;99.90;;;;;;6149310;23;20434;-59
2024/03/14 01:12:48;;;;;;;14.27;7.50;;;10.00;99.90;;;;;;6148435;23;20439;-58
2024/03/14 01:15:17;;;;;;;12.73;7.80;;;10.00;99.90;;;;;;6149471;23;20740;-61
2024/03/14 01:17:44;;;;;;;10.00;7.93;;;9.90;99.90;;;;;;6148957;23;20491;-61
2024/03/14 01:20:15;;;;;;;13.80;7.67;;;9.80;99.90;;;;;;6148961;23;20401;-60
2024/03/14 01:22:42;;;;;;;11.63;6.77;;;9.80;99.90;;;;;;6148166;23;20427;-59
2024/03/14 01:25:09;;;;;;;11.03;7.40;;;9.80;99.90;;;;;;6149291;23;20470;-60
2024/03/14 01:27:36;;;;;;;15.00;9.20;;;9.70;99.90;;;;;;6149064;23;20781;-60
2024/03/14 01:30:04;;;;;;;12.80;7.57;;;9.70;99.90;;;;;;6149099;23;20437;-61
2024/03/14 01:32:32;;;;;;;10.87;7.50;;;9.70;99.90;;;;;;6148749;23;20429;-59
2024/03/14 01:34:59;;;;;;;12.77;9.60;;;9.70;99.90;;;;;;6149126;23;20403;-60
2024/03/14 01:37:26;;;;;;;14.07;8.90;;;9.80;99.90;;;;;;6148875;23;20973;-62
2024/03/14 01:39:53;;;;;;;12.77;8.93;;;9.80;99.90;;;;;;6148760;23;20430;-60
2024/03/14 01:42:20;;;;;;;11.73;8.00;;;9.70;99.90;;;;;;6148988;23;20458;-62
2024/03/14 01:44:55;;;;;;;14.67;9.07;;;9.80;99.90;;;;;;6149408;23;20961;-62
2024/03/14 01:47:22;;;;;;;15.77;8.60;;;9.80;99.90;;;;;;6148771;23;20418;-61
2024/03/14 01:49:50;;;;;;;13.73;8.03;;;9.80;99.90;;;;;;6149194;23;20434;-62
2024/03/14 01:52:17;;;;;;;14.10;9.53;;;9.80;99.90;;;;;;6148348;23;20981;-61
2024/03/14 01:54:44;;;;;;;14.13;9.97;;;9.80;99.90;;;;;;6148854;23;20474;-59
2024/03/14 01:57:11;;;;;;;16.93;10.23;;;9.80;99.90;;;;;;6148803;23;20482;-61
2024/03/14 01:59:38;;;;;;;15.40;10.23;;;9.80;99.90;;;;;;6148924;23;20442;-59
2024/03/14 02:02:06;;;;;;;16.87;10.73;;;9.80;99.90;;;;;;6148778;23;20446;-62
2024/03/14 02:04:34;;;;;;;18.57;12.10;;;9.90;99.90;;;;;;6148197;23;20526;-60
2024/03/14 02:07:02;;;;;;;18.10;10.90;;;9.90;99.90;;;;;;6148928;23;20486;-59
2024/03/14 02:09:29;;;;;;;19.57;11.40;;;9.90;99.90;;;;;;6148440;23;20418;-59
2024/03/14 02:11:56;;;;;;;22.87;10.33;;;10.00;99.90;;;;;;6150648;23;20433;-61
2024/03/14 02:14:23;;;;;;;17.73;11.87;;;10.00;99.90;;;;;;6153650;23;20466;-59
2024/03/14 02:16:50;;;;;;;18.20;9.77;;;10.00;99.90;;;;;;6154018;23;20477;-61
2024/03/14 02:19:17;;;;;;;20.00;10.23;;;10.00;99.90;;;;;;6153875;23;20413;-58
2024/03/14 02:21:44;;;;;;;16.07;10.60;;;10.00;99.90;;;;;;6153436;23;20505;-59
2024/03/14 02:24:11;;;;;;;16.40;10.87;;;10.00;99.90;;;;;;6153321;23;20967;-61
2024/03/14 02:26:41;;;;;;;17.53;10.13;;;10.00;99.90;;;;;;6153723;23;20481;-61
2024/03/14 02:29:08;;;;;;;18.77;11.50;;;10.00;99.90;;;;;;6153780;23;20430;-61
2024/03/14 02:31:35;;;;;;;15.10;10.13;;;10.10;99.90;;;;;;6153228;23;20402;-62
2024/03/14 02:34:04;;;;;;;15.37;10.50;;;10.10;99.90;;;;;;6153712;23;20430;-60
2024/03/14 02:36:31;;;;;;;22.63;10.73;;;10.10;99.90;;;;;;6153751;23;20923;-62
2024/03/14 02:38:58;;;;;;;18.63;10.50;;;10.10;99.90;;;;;;6153336;23;20493;-63
2024/03/14 02:41:25;;;;;;;19.87;12.07;;;10.10;99.90;;;;;;6153578;23;20410;-61
2024/03/14 02:43:52;;;;;;;17.33;12.03;;;10.10;99.90;;;;;;6153158;23;20530;-62
2024/03/14 02:46:19;;;;;;;17.70;11.20;;;10.10;99.90;;;;;;6153442;23;20429;-62
2024/03/14 02:48:46;;;;;;;15.60;10.40;;;10.10;99.90;;;;;;6153568;23;20486;-59
2024/03/14 02:51:14;;;;;;;16.70;9.50;;;10.10;99.90;;;;;;6153759;23;20405;-59
2024/03/14 02:53:41;;;;;;;18.60;10.63;;;10.20;99.90;;;;;;6153483;23;20430;-58
2024/03/14 02:56:09;;;;;;;17.30;12.63;;;10.20;99.90;;;;;;6153765;23;20453;-60
2024/03/14 02:58:37;;;;;;;17.70;11.33;;;10.20;99.90;;;;;;6153117;23;20401;-57
2024/03/14 03:01:08;;;;;;;28.00;18.70;;;10.20;99.90;;;;;;6153706;23;20397;-61
2024/03/14 03:03:37;;;;;;;12.23;8.43;;;10.30;99.90;;;;;;6152987;23;20485;-60
2024/03/14 03:06:05;;;;;;;12.57;8.80;;;10.30;99.90;;;;;;6153628;23;20803;-62
2024/03/14 03:08:32;;;;;;;14.40;9.27;;;10.20;99.90;;;;;;6129302;23;20457;-61
2024/03/14 03:11:02;;;;;;;17.73;9.60;;;10.20;99.90;;;;;;6140893;23;20542;-65
2024/03/14 03:13:29;;;;;;;15.40;8.50;;;10.30;99.90;;;;;;6099108;23;20380;-65
2024/03/14 03:15:56;;;;;;;14.97;10.03;;;10.30;99.90;;;;;;6118334;23;21086;-65
2024/03/14 03:18:24;;;;;;;10.93;8.63;;;10.30;99.90;;;;;;6151455;23;20508;-65
2024/03/14 03:20:52;;;;;;;13.97;8.73;;;10.30;99.90;;;;;;6152550;23;20403;-66
2024/03/14 03:23:18;;;;;;;15.53;9.77;;;10.40;99.90;;;;;;6151727;23;20800;-65
2024/03/14 03:25:44;;;;;;;13.60;9.77;;;10.40;99.90;;;;;;6152719;23;20447;-66
2024/03/14 03:28:13;;;;;;;15.90;10.40;;;10.40;99.90;;;;;;6152922;23;20458;-66
2024/03/14 03:30:39;;;;;;;12.73;7.77;;;10.40;99.90;;;;;;6152478;23;20486;-65
2024/03/14 03:33:07;;;;;;;19.67;10.17;;;10.50;99.90;;;;;;6152615;23;20410;-65
2024/03/14 03:35:33;;;;;;;17.40;11.60;;;10.40;99.90;;;;;;6152693;23;20423;-66
2024/03/14 03:38:01;;;;;;;21.80;11.30;;;10.50;99.90;;;;;;6152787;23;20462;-67
2024/03/14 03:40:35;;;;;;;19.33;9.97;;;10.40;99.90;;;;;;6151876;23;20403;-67
2024/03/14 03:43:03;;;;;;;18.10;9.87;;;10.40;99.90;;;;;;6149325;23;20433;-67
2024/03/14 03:45:29;;;;;;;15.43;10.33;;;10.50;99.90;;;;;;6152288;23;20542;-66
2024/03/14 03:47:56;;;;;;;15.00;9.93;;;10.50;99.90;;;;;;6153127;23;20407;-66
2024/03/14 03:50:23;;;;;;;16.37;11.50;;;10.60;99.90;;;;;;6152085;23;20923;-67
2024/03/14 03:52:50;;;;;;;18.37;11.47;;;10.60;99.90;;;;;;6150582;23;20443;-66
2024/03/14 03:55:16;;;;;;;14.73;8.83;;;10.60;99.90;;;;;;6151971;23;20428;-66
2024/03/14 03:57:44;;;;;;;16.33;10.97;;;10.60;99.90;;;;;;6127906;23;20403;-66
2024/03/14 04:02:52;;;;;;;16.80;10.20;;;10.50;99.90;;;;;;6148452;23;20399;-67
2024/03/14 04:05:20;;;;;;;17.87;10.80;;;10.50;99.90;;;;;;6152371;23;20912;-66
2024/03/14 04:07:47;;;;;;;13.27;9.30;;;10.50;99.90;;;;;;6151615;23;20407;-67
2024/03/14 04:10:14;;;;;;;17.33;10.27;;;10.60;99.90;;;;;;6151433;23;20407;-66
2024/03/14 04:12:41;;;;;;;18.43;10.83;;;10.60;99.90;;;;;;6151355;23;20415;-65
2024/03/14 04:15:09;;;;;;;17.37;10.60;;;10.70;99.90;;;;;;6151207;23;20427;-66
2024/03/14 04:17:37;;;;;;;14.07;9.77;;;10.70;99.90;;;;;;6152363;23;20463;-66
2024/03/14 04:20:10;;;;;;;19.90;11.70;;;10.60;99.90;;;;;;6152427;23;20457;-66
2024/03/14 04:22:39;;;;;;;18.43;11.00;;;10.60;99.90;;;;;;6151848;23;20768;-66
2024/03/14 04:25:10;;;;;;;21.63;9.60;;;10.60;99.90;;;;;;6152060;23;20451;-66
2024/03/14 04:27:39;;;;;;;17.30;10.40;;;10.70;99.90;;;;;;6152073;23;20427;-65
2024/03/14 04:30:07;;;;;;;20.83;12.30;;;10.70;99.90;;;;;;6152865;23;20414;-66
2024/03/14 04:32:36;;;;;;;17.23;10.50;;;10.70;99.90;;;;;;6151454;23;20395;-66
2024/03/14 04:35:05;;;;;;;22.00;11.33;;;10.80;99.90;;;;;;6152320;23;20442;-66
2024/03/14 04:37:32;;;;;;;21.27;11.60;;;10.80;99.90;;;;;;6152451;23;20399;-66
2024/03/14 04:39:59;;;;;;;24.90;12.80;;;10.80;99.90;;;;;;6152427;23;20399;-66
2024/03/14 04:42:30;;;;;;;26.13;11.87;;;10.80;99.90;;;;;;6152444;23;20403;-66
2024/03/14 04:44:57;;;;;;;16.93;11.10;;;10.90;99.90;;;;;;6152452;23;20474;-65
2024/03/14 04:47:26;;;;;;;19.70;12.10;;;10.90;99.90;;;;;;6152704;23;20406;-65
2024/03/14 04:49:53;;;;;;;20.30;9.90;;;10.90;99.90;;;;;;6153126;23;20407;-66
2024/03/14 04:52:20;;;;;;;19.93;11.10;;;10.90;99.90;;;;;;6152847;23;20468;-66
2024/03/14 04:54:47;;;;;;;21.20;12.10;;;10.90;99.90;;;;;;6152712;23;20505;-67
2024/03/14 04:57:14;;;;;;;21.43;12.13;;;10.90;99.90;;;;;;6155237;23;20393;-66
2024/03/14 04:59:41;;;;;;;14.93;9.73;;;10.90;99.90;;;;;;6154122;23;20399;-66
2024/03/14 05:02:08;;;;;;;22.33;13.00;;;10.90;99.90;;;;;;6154505;23;20395;-67
2024/03/14 05:04:36;;;;;;;21.90;11.30;;;10.90;99.90;;;;;;6158896;23;20461;-66
2024/03/14 05:07:03;;;;;;;24.60;13.63;;;10.90;99.90;;;;;;6157745;23;20403;-66
2024/03/14 05:09:30;;;;;;;26.17;11.97;;;10.90;99.90;;;;;;6154549;23;20417;-66
2024/03/14 05:11:57;;;;;;;20.60;12.17;;;10.90;99.90;;;;;;6153466;23;20694;-66
2024/03/14 05:14:24;;;;;;;20.40;11.70;;;10.90;99.90;;;;;;6153195;23;20900;-66
2024/03/14 05:16:52;;;;;;;19.00;11.57;;;11.00;99.90;;;;;;6154440;23;20408;-67
2024/03/14 05:19:23;;;;;;;20.77;11.47;;;11.00;99.90;;;;;;6154221;23;20406;-67
2024/03/14 05:21:50;;;;;;;21.73;12.53;;;11.00;99.90;;;;;;6152729;23;20411;-66
2024/03/14 05:24:20;;;;;;;24.93;13.30;;;11.00;99.90;;;;;;6155339;23;20486;-65
2024/03/14 05:26:47;;;;;;;22.60;12.80;;;11.10;99.90;;;;;;6154913;23;20407;-65
2024/03/14 05:29:15;;;;;;;27.30;12.23;;;11.00;99.90;;;;;;6157291;23;20411;-65
2024/03/14 05:31:42;;;;;;;25.50;12.93;;;11.10;99.90;;;;;;6160837;23;20407;-66
2024/03/14 05:34:09;;;;;;;32.00;13.60;;;11.10;99.90;;;;;;6159827;23;20406;-66
2024/03/14 05:36:36;;;;;;;23.03;13.60;;;11.10;99.90;;;;;;6156775;23;20426;-66
2024/03/14 05:39:04;;;;;;;21.00;12.40;;;11.10;99.90;;;;;;6153701;23;20407;-67
2024/03/14 05:41:31;;;;;;;23.60;12.47;;;11.10;99.90;;;;;;6155701;23;20470;-66
2024/03/14 05:43:58;;;;;;;20.50;12.30;;;11.10;99.90;;;;;;6154355;23;20908;-66
2024/03/14 05:46:26;;;;;;;23.03;13.03;;;11.10;99.90;;;;;;6153851;23;20450;-66
2024/03/14 05:48:53;;;;;;;22.47;11.50;;;11.10;99.90;;;;;;6153640;23;20411;-66
2024/03/14 05:51:20;;;;;;;24.77;13.27;;;11.10;99.90;;;;;;6154453;23;20404;-67
2024/03/14 05:53:47;;;;;;;25.93;13.80;;;11.20;99.90;;;;;;6152608;23;20431;-66
2024/03/14 05:56:15;;;;;;;26.40;13.17;;;11.20;99.90;;;;;;6153053;23;20478;-65
2024/03/14 05:58:44;;;;;;;18.97;12.47;;;11.20;99.90;;;;;;6152273;23;20433;-66
2024/03/14 06:01:11;;;;;;;28.80;13.03;;;11.10;99.90;;;;;;6153136;23;20913;-66
2024/03/14 06:03:41;;;;;;;28.23;13.10;;;11.10;99.90;;;;;;6152607;23;20403;-66
2024/03/14 06:06:09;;;;;;;22.80;12.80;;;11.10;99.90;;;;;;6151574;23;20454;-66
2024/03/14 06:08:36;;;;;;;19.40;11.40;;;11.10;99.90;;;;;;6153086;23;20403;-65
2024/03/14 06:11:03;;;;;;;23.07;12.23;;;11.20;99.90;;;;;;6152706;23;20812;-65
2024/03/14 06:13:30;;;;;;;27.10;13.03;;;11.10;99.90;;;;;;6151942;23;20427;-65
2024/03/14 06:15:57;;;;;;;26.07;13.30;;;11.10;99.90;;;;;;6152574;23;20424;-66
2024/03/14 06:18:24;;;;;;;30.53;12.77;;;11.10;99.90;;;;;;6152460;23;20410;-66
2024/03/14 06:20:54;;;;;;;25.17;15.20;;;11.10;99.90;;;;;;6153427;23;20431;-67
2024/03/14 06:23:21;;;;;;;26.03;13.83;;;11.10;99.90;;;;;;6151640;23;20404;-66
2024/03/14 06:25:48;;;;;;;23.37;12.73;;;11.20;99.90;;;;;;6153472;23;20449;-66
2024/03/14 06:28:15;;;;;;;34.00;15.37;;;11.20;99.90;;;;;;6154042;23;20403;-66
2024/03/14 06:30:42;;;;;;;22.93;12.97;;;11.20;99.90;;;;;;6153777;23;20783;-67
2024/03/14 06:33:09;;;;;;;22.47;14.90;;;11.20;99.90;;;;;;6152849;23;20407;-67
2024/03/14 06:35:36;;;;;;;24.43;14.67;;;11.30;99.90;;;;;;6154702;23;20435;-67
2024/03/14 06:38:04;;;;;;;25.23;14.70;;;11.30;99.90;;;;;;6155184;23;20735;-64
2024/03/14 06:40:31;;;;;;;22.30;12.50;;;11.30;99.90;;;;;;6154823;23;20487;-65
2024/03/14 06:42:58;;;;;;;19.60;12.23;;;11.30;99.90;;;;;;6154814;23;20442;-65
2024/03/14 06:45:25;;;;;;;26.13;13.10;;;11.30;99.90;;;;;;6154353;23;20443;-67
2024/03/14 06:47:54;;;;;;;23.03;12.50;;;11.40;99.90;;;;;;6154794;23;20403;-67
2024/03/14 06:50:22;;;;;;;26.20;13.57;;;11.50;99.90;;;;;;6152956;23;20411;-65
2024/03/14 06:52:49;;;;;;;23.97;14.10;;;11.40;99.90;;;;;;6154018;23;20461;-66
2024/03/14 06:55:16;;;;;;;23.37;12.87;;;11.40;99.90;;;;;;6153734;23;20427;-66
2024/03/14 06:57:45;;;;;;;23.30;12.60;;;11.40;99.90;;;;;;6153955;23;20417;-66
2024/03/14 07:00:17;;;;;;;21.80;12.20;;;11.50;99.90;;;;;;6153378;23;20410;-66
2024/03/14 07:02:44;;;;;;;23.20;12.47;;;11.50;99.90;;;;;;6152375;23;20384;-67
2024/03/14 07:05:14;;;;;;;23.87;13.73;;;11.60;99.90;;;;;;6153569;23;20447;-66
2024/03/14 07:07:42;;;;;;;24.93;14.27;;;11.60;99.90;;;;;;6154665;23;20403;-66
2024/03/14 07:10:13;;;;;;;23.97;13.70;;;11.60;99.90;;;;;;6153948;23;20406;-65
2024/03/14 07:12:41;;;;;;;25.80;12.87;;;11.60;99.90;;;;;;6153642;23;20410;-66
2024/03/14 07:15:08;;;;;;;27.30;14.13;;;11.70;99.90;;;;;;6154510;23;20523;-66
2024/03/14 07:17:35;;;;;;;25.67;12.47;;;11.80;99.90;;;;;;6153534;23;20403;-65
2024/03/14 07:20:09;;;;;;;28.83;13.47;;;11.80;99.90;;;;;;6153975;23;20407;-66
2024/03/14 07:22:37;;;;;;;24.00;14.07;;;11.80;99.90;;;;;;6152315;23;20384;-67
2024/03/14 07:25:06;;;;;;;20.60;12.40;;;11.90;99.90;;;;;;6153987;23;20451;-66
2024/03/14 07:27:33;;;;;;;21.70;12.63;;;11.90;99.90;;;;;;6154617;23;20410;-66
2024/03/14 07:30:00;;;;;;;22.77;13.20;;;11.90;99.90;;;;;;6153791;23;20407;-66
2024/03/14 07:32:28;;;;;;;22.60;11.23;;;11.90;99.90;;;;;;6153456;23;20503;-66
2024/03/14 07:34:55;;;;;;;23.00;13.27;;;11.90;99.90;;;;;;6154879;23;20427;-66
2024/03/14 07:37:23;;;;;;;27.13;13.20;;;11.90;99.90;;;;;;6158840;23;20439;-69
2024/03/14 07:39:51;;;;;;;23.73;12.77;;;11.90;99.90;;;;;;6158714;23;20924;-66
2024/03/14 07:42:18;;;;;;;23.77;12.17;;;11.90;99.90;;;;;;6157789;23;20483;-68
2024/03/14 07:44:46;;;;;;;23.60;13.83;;;12.00;99.90;;;;;;6157150;23;20427;-66
2024/03/14 07:47:19;;;;;;;20.27;11.43;;;12.00;99.90;;;;;;6156988;23;20470;-67
2024/03/14 07:49:48;;;;;;;29.40;13.07;;;12.00;99.90;;;;;;6155688;23;20379;-67
2024/03/14 07:52:15;;;;;;;24.63;13.60;;;12.00;99.90;;;;;;6152223;23;20399;-66
2024/03/14 07:54:45;;;;;;;22.33;12.23;;;12.00;99.90;;;;;;6156044;23;20446;-67
2024/03/14 07:57:16;;;;;;;19.17;11.50;;;12.00;99.90;;;;;;6154627;23;20418;-68
2024/03/14 07:59:43;;;;;;;24.30;13.40;;;12.10;99.90;;;;;;6156828;23;20759;-67
2024/03/14 08:02:11;;;;;;;23.30;12.47;;;12.10;99.90;;;;;;6157932;23;20403;-66
2024/03/14 08:04:41;;;;;;;26.47;13.50;;;12.20;99.90;;;;;;6158415;23;20430;-66
2024/03/14 08:07:13;;;;;;;21.60;12.97;;;12.20;99.90;;;;;;6157124;23;20503;-67
2024/03/14 08:09:41;;;;;;;21.13;12.03;;;12.20;99.90;;;;;;6155709;23;20384;-67
2024/03/14 08:12:08;;;;;;;23.73;11.53;;;12.30;99.90;;;;;;6157042;23;20415;-67
2024/03/14 08:14:35;;;;;;;21.97;10.67;;;12.30;99.90;;;;;;6158120;23;20682;-67
2024/03/14 08:17:06;;;;;;;25.73;12.77;;;12.30;99.90;;;;;;6157383;23;20478;-67
2024/03/14 08:19:34;;;;;;;28.33;13.20;;;12.30;99.90;;;;;;6156236;23;20387;-67
2024/03/14 08:22:04;;;;;;;20.77;11.60;;;12.30;99.90;;;;;;6155454;23;20451;-67
2024/03/14 08:24:41;;;;;;;26.17;14.37;;;12.40;99.90;;;;;;6156413;23;20411;-68
2024/03/14 08:27:10;;;;;;;31.47;15.63;;;12.40;99.90;;;;;;6153807;23;20496;-68
2024/03/14 08:29:37;;;;;;;25.93;12.13;;;12.40;99.90;;;;;;6156680;23;20407;-68
2024/03/14 08:32:04;;;;;;;31.63;13.57;;;12.40;99.90;;;;;;6155313;23;20403;-66
2024/03/14 08:34:31;;;;;;;24.87;12.37;;;12.50;99.90;;;;;;6156889;23;20714;-67
2024/03/14 08:36:58;;;;;;;29.80;13.30;;;12.50;99.90;;;;;;6156444;23;20454;-68
2024/03/14 08:39:27;;;;;;;25.00;12.77;;;12.50;99.90;;;;;;6154766;23;20414;-67
2024/03/14 08:41:54;;;;;;;26.00;13.17;;;12.50;99.90;;;;;;6154925;23;20442;-68
2024/03/14 08:44:26;;;;;;;30.37;15.13;;;12.60;99.90;;;;;;6155360;23;20443;-66
2024/03/14 08:46:53;;;;;;;27.37;13.83;;;12.60;99.90;;;;;;6157484;23;20431;-67
2024/03/14 08:49:20;;;;;;;21.40;12.07;;;12.70;99.90;;;;;;6162822;23;20454;-66
2024/03/14 08:51:47;;;;;;;23.37;13.30;;;12.70;99.90;;;;;;6161651;23;20481;-68
2024/03/14 08:54:29;;;;;;;27.33;15.17;;;12.80;99.90;;;;;;6161299;23;20399;-68
2024/03/14 08:56:58;;;;;;;23.80;13.60;;;12.80;99.90;;;;;;6158466;23;20380;-67
2024/03/14 08:59:27;;;;;;;23.67;15.30;;;12.90;99.90;;;;;;6161640;23;20415;-67
2024/03/14 09:01:55;;;;;;;31.47;16.90;;;13.00;99.90;;;;;;6160320;23;20419;-68
2024/03/14 09:04:23;;;;;;;27.27;14.77;;;13.00;99.90;;;;;;6161463;23;20406;-68
2024/03/14 09:06:51;;;;;;;27.50;12.97;;;13.10;99.90;;;;;;6161094;23;20434;-67
2024/03/14 09:09:27;;;;;;;23.73;14.00;;;13.20;99.90;;;;;;6161006;23;20435;-67
2024/03/14 09:11:58;;;;;;;23.03;13.73;;;13.30;99.90;;;;;;6158530;23;20421;-68
2024/03/14 09:14:26;;;;;;;22.57;12.50;;;13.40;99.90;;;;;;6160558;23;20394;-67
2024/03/14 09:16:53;;;;;;;29.23;12.77;;;13.50;99.90;;;;;;6159325;23;20407;-66
2024/03/14 09:19:20;;;;;;;24.93;12.93;;;13.50;99.90;;;;;;6159104;23;20403;-67
2024/03/14 09:21:47;;;;;;;21.73;12.10;;;13.50;99.90;;;;;;6158445;23;20407;-68
2024/03/14 09:24:15;;;;;;;24.13;12.50;;;13.50;99.90;;;;;;6159678;23;20489;-67
2024/03/14 09:26:43;;;;;;;23.10;13.57;;;13.50;99.90;;;;;;6159235;23;20954;-67
2024/03/14 09:29:11;;;;;;;24.97;12.97;;;13.50;99.90;;;;;;6159193;23;20435;-68
2024/03/14 09:31:43;;;;;;;18.70;12.03;;;13.60;99.90;;;;;;6158013;23;20407;-67
2024/03/14 09:34:11;;;;;;;21.23;12.83;;;13.70;99.90;;;;;;6158437;23;20407;-67
2024/03/14 09:36:38;;;;;;;21.93;13.43;;;13.70;99.90;;;;;;6159327;23;20482;-68
2024/03/14 09:39:15;;;;;;;20.97;11.33;;;13.70;99.90;;;;;;6158806;23;20403;-67
2024/03/14 09:41:42;;;;;;;20.50;11.90;;;13.80;99.90;;;;;;6157097;23;20748;-66
2024/03/14 09:44:09;;;;;;;23.27;12.57;;;13.90;99.90;;;;;;6160185;23;20400;-66
2024/03/14 09:46:37;;;;;;;22.27;12.30;;;14.00;99.90;;;;;;6159123;23;20447;-67
2024/03/14 09:49:04;;;;;;;19.40;12.93;;;14.20;99.90;;;;;;6157767;23;20407;-66
2024/03/14 09:51:32;;;;;;;19.63;13.10;;;14.30;99.90;;;;;;6156739;23;20399;-67
2024/03/14 09:54:00;;;;;;;19.37;11.03;;;14.30;99.90;;;;;;6156890;23;20445;-67
2024/03/14 09:56:27;;;;;;;20.97;12.97;;;14.40;99.90;;;;;;6157744;23;20423;-67
2024/03/14 09:58:56;;;;;;;16.47;10.57;;;14.40;99.90;;;;;;6156875;23;20427;-66
2024/03/14 10:01:24;;;;;;;22.07;13.03;;;14.60;99.90;;;;;;6157318;23;20407;-67
2024/03/14 10:03:51;;;;;;;26.50;13.70;;;14.70;99.90;;;;;;6157537;23;20406;-68
2024/03/14 10:06:18;;;;;;;17.30;12.13;;;14.90;99.90;;;;;;6155917;23;20449;-67
2024/03/14 10:08:46;;;;;;;19.33;11.53;;;15.00;99.90;;;;;;6155425;23;20423;-66
2024/03/14 10:11:13;;;;;;;17.17;10.37;;;15.00;99.90;;;;;;6159257;23;20422;-68
2024/03/14 10:13:43;;;;;;;21.03;12.20;;;15.00;99.90;;;;;;6161072;23;20394;-66
2024/03/14 10:16:10;;;;;;;19.33;11.50;;;15.10;99.90;;;;;;6161814;23;20748;-66
2024/03/14 10:18:38;;;;;;;27.83;11.30;;;15.20;99.90;;;;;;6161124;23;20413;-67
2024/03/14 10:21:07;;;;;;;20.20;11.47;;;15.30;99.90;;;;;;6161560;23;20708;-67
2024/03/14 10:23:35;;;;;;;18.90;11.77;;;15.30;99.90;;;;;;6160758;23;20398;-68
2024/03/14 10:26:02;;;;;;;20.40;11.70;;;15.40;99.90;;;;;;6161104;23;20500;-67
2024/03/14 10:28:31;;;;;;;16.33;11.47;;;15.50;99.90;;;;;;6160577;23;20408;-68
2024/03/14 10:31:01;;;;;;;17.90;10.03;;;15.60;99.90;;;;;;6160611;23;20415;-67
2024/03/14 10:33:28;;;;;;;19.10;9.80;;;15.70;99.90;;;;;;6136305;23;20415;-67
2024/03/14 10:35:57;;;;;;;21.63;11.93;;;15.90;99.90;;;;;;6160747;23;20468;-67
2024/03/14 10:38:26;;;;;;;24.23;10.47;;;16.00;99.90;;;;;;6160783;23;20398;-68
2024/03/14 10:40:55;;;;;;;18.30;10.57;;;16.00;99.90;;;;;;6160226;23;20513;-68
2024/03/14 10:43:22;;;;;;;15.67;8.90;;;15.90;99.90;;;;;;6159103;23;20425;-67
2024/03/14 10:45:52;;;;;;;18.30;8.80;;;15.90;99.90;;;;;;6160117;23;20426;-67
2024/03/14 10:48:23;;;;;;;14.77;9.20;;;15.80;99.90;;;;;;6160459;23;20409;-67
2024/03/14 10:50:56;;;;;;;14.23;9.60;;;15.60;99.90;;;;;;6161729;23;20762;-68
2024/03/14 10:53:28;;;;;;;15.27;8.00;;;15.60;99.90;;;;;;6161367;23;20475;-67
2024/03/14 10:55:55;;;;;;;12.77;8.07;;;15.60;99.90;;;;;;6139383;23;20427;-68
2024/03/14 10:58:23;;;;;;;15.83;7.43;;;15.60;99.90;;;;;;6163194;23;20402;-68
2024/03/14 11:00:51;;;;;;;18.97;8.60;;;15.50;99.90;;;;;;6164537;23;20546;-67
2024/03/14 11:03:19;;;;;;;11.03;7.17;;;15.50;99.90;;;;;;6162466;23;20406;-68
2024/03/14 11:05:48;;;;;;;9.90;7.23;;;15.50;99.90;;;;;;6162272;23;20429;-68
2024/03/14 11:08:17;;;;;;;12.17;7.67;;;15.50;99.90;;;;;;6138697;23;20421;-67
2024/03/14 11:10:44;;;;;;;12.43;7.50;;;15.60;99.90;;;;;;6161665;23;20449;-68
2024/03/14 11:13:12;;;;;;;13.20;7.97;;;15.70;99.90;;;;;;6156917;23;20414;-67
2024/03/14 11:15:40;;;;;;;11.73;8.00;;;15.80;99.90;;;;;;6162641;23;20434;-66
2024/03/14 11:18:08;;;;;;;10.70;7.50;;;15.90;99.90;;;;;;6162137;23;20879;-66
2024/03/14 11:20:36;;;;;;;12.27;6.43;;;15.90;99.90;;;;;;6161084;23;20453;-66
2024/03/14 11:23:04;;;;;;;12.93;7.17;;;16.00;99.90;;;;;;6159000;23;20408;-68
2024/03/14 11:25:32;;;;;;;11.40;6.30;;;16.10;99.90;;;;;;6161004;23;20420;-65
2024/03/14 11:28:00;;;;;;;15.60;7.63;;;16.20;99.90;;;;;;6162722;23;20502;-66
2024/03/14 11:30:27;;;;;;;8.40;5.67;;;16.20;99.90;;;;;;6162611;23;20457;-65
2024/03/14 11:32:57;;;;;;;8.57;5.50;;;16.30;99.90;;;;;;6160107;23;20481;-68
2024/03/14 11:35:50;;;;;;;12.17;6.50;;;16.40;99.90;;;;;;6159382;23;20423;-67
2024/03/14 11:38:24;;;;;;;8.83;5.63;;;16.50;99.90;;;;;;6129113;23;20868;-67
2024/03/14 11:40:58;;;;;;;12.47;7.10;;;16.60;99.90;;;;;;6157201;23;20947;-66
2024/03/14 11:43:25;;;;;;;9.10;5.40;;;16.60;99.90;;;;;;6156066;23;20388;-67
2024/03/14 11:45:57;;;;;;;9.60;5.37;;;16.70;99.90;;;;;;6157078;23;20419;-66
2024/03/14 11:48:24;;;;;;;9.70;5.43;;;16.80;99.90;;;;;;6156509;23;20446;-67
2024/03/14 11:50:53;;;;;;;8.37;5.60;;;16.80;99.90;;;;;;6158846;23;20407;-67
2024/03/14 11:53:23;;;;;;;7.90;5.40;;;16.90;99.90;;;;;;6156648;23;20403;-66
2024/03/14 11:55:52;;;;;;;9.87;4.63;;;16.80;99.90;;;;;;6156704;23;20432;-67
2024/03/14 11:58:20;;;;;;;8.13;4.93;;;16.70;99.90;;;;;;6158235;23;20403;-67
2024/03/14 12:00:48;;;;;;;10.80;5.40;;;16.70;99.90;;;;;;6157229;23;20403;-66
2024/03/14 12:03:15;;;;;;;6.20;4.30;;;16.70;99.90;;;;;;6157455;23;20476;-68
2024/03/14 12:05:44;;;;;;;9.00;5.17;;;16.70;99.90;;;;;;6158919;23;20426;-67
2024/03/14 12:08:11;;;;;;;7.23;4.47;;;16.80;99.90;;;;;;6156978;23;20453;-67
2024/03/14 12:10:39;;;;;;;9.30;4.60;;;16.80;99.90;;;;;;6158334;23;20477;-67
2024/03/14 12:13:15;;;;;;;4.50;3.50;;;16.90;99.90;;;;;;6158044;23;20411;-66
2024/03/14 12:15:42;;;;;;;6.90;4.33;;;17.10;99.90;;;;;;6158118;23;20419;-66
2024/03/14 12:18:11;;;;;;;7.63;4.70;;;17.10;99.90;;;;;;6157820;23;20427;-67
2024/03/14 12:20:38;;;;;;;8.47;3.17;;;17.20;99.90;;;;;;6157176;23;20707;-67
2024/03/14 12:23:07;;;;;;;5.70;3.50;;;17.20;99.90;;;;;;6157760;23;20403;-67
2024/03/14 12:25:37;;;;;;;4.90;3.20;;;17.10;99.90;;;;;;6157260;23;20419;-67
2024/03/14 12:28:05;;;;;;;5.73;3.60;;;17.00;99.90;;;;;;6152026;23;20457;-66
2024/03/14 12:30:36;;;;;;;6.13;4.00;;;16.90;99.90;;;;;;6154497;23;20403;-67
2024/03/14 12:33:03;;;;;;;5.27;3.77;;;16.80;99.90;;;;;;6154774;23;20438;-66
2024/03/14 12:35:30;;;;;;;7.17;4.43;;;16.70;99.90;;;;;;6157817;23;20453;-67
2024/03/14 12:37:59;;;;;;;5.80;4.10;;;16.50;99.90;;;;;;6156815;23;20470;-66
2024/03/14 12:40:26;;;;;;;8.17;5.13;;;16.40;99.90;;;;;;6156058;23;20955;-67